Terminal Aerodrome Forecast
Issued by NWS Wichita, KS

Home | Current Version | Previous Version | Graphics & Text | Print | Product List | Glossary On
Versions: 1 2 3 4 5 6 7 8 9 10 11 12 13 14 15 16
000
FTUS43 KICT 201720
TAFICT
TAF
KICT 201720Z 2018/2118 30007KT P6SM SCT035
     FM202100 35005KT P6SM SCT045
     FM210200 05005KT P6SM SCT060
     FM210400 11006KT P6SM BKN070
     FM210800 16008KT P6SM BKN070
     FM211500 18015G23KT P6SM SCT070=

USA.gov is the U.S. government's official web portal to all federal, state and local government web resources and services.